Time;durP1;ratioP1;P1;durP2;ratioP2;P2;SDS_P1;SDS_P2;PMS_P1;PMS_P2;Temp;Humidity;BMP_temperature;BMP_pressure;BME280_temperature;BME280_humidity;BME280_pressure;Samples;Min_cycle;Max_cycle;Signal;HPM_P1;HPM_P2
2022/03/30 00:02:18;;;;;;;;;;;;;;;;;;4971269;28;19956;-62
2022/03/30 00:04:44;;;;;;;;;;;;;;;;;;4972059;28;19973;-61
2022/03/30 00:07:11;;;;;;;;;;;;;;;;;;4972713;28;20393;-63
2022/03/30 00:09:37;;;;;;;;;;;;;;;;;;4990133;28;20408;-62
2022/03/30 00:12:03;;;;;;;;;;;;;;;;;;4978251;28;19990;-63
2022/03/30 00:14:29;;;;;;;;;;;;;;;;;;4988485;28;19958;-62
2022/03/30 00:16:55;;;;;;;;;;;;;;;;;;4986560;28;19942;-61
2022/03/30 00:19:21;;;;;;;;;;;;;;;;;;4986596;28;19936;-64
2022/03/30 00:21:47;;;;;;;;;;;;;;;;;;4979481;28;19955;-65
2022/03/30 00:24:14;;;;;;;;;;;;;;;;;;4991696;28;19969;-64
2022/03/30 00:26:40;;;;;;;;;;;;;;;;;;4988340;28;19958;-64
2022/03/30 00:29:06;;;;;;;;;;;;;;;;;;4983365;28;20343;-62
2022/03/30 00:31:32;;;;;;;;;;;;;;;;;;4982634;28;20308;-62
2022/03/30 00:33:58;;;;;;;;;;;;;;;;;;4971492;28;20321;-62
2022/03/30 00:36:24;;;;;;;;;;;;;;;;;;4971460;28;20432;-62
2022/03/30 00:38:50;;;;;;;;;;;;;;;;;;4977016;28;20400;-61
2022/03/30 00:41:16;;;;;;;;;;;;;;;;;;4986815;28;20441;-62
2022/03/30 00:43:43;;;;;;;;;;;;;;;;;;4981526;28;20313;-61
2022/03/30 00:46:09;;;;;;;;;;;;;;;;;;4981130;28;19957;-61
2022/03/30 00:48:35;;;;;;;;;;;;;;;;;;4984581;28;19966;-61
2022/03/30 00:51:01;;;;;;;;;;;;;;;;;;4980261;28;19942;-62
2022/03/30 00:53:27;;;;;;;;;;;;;;;;;;4984465;28;19956;-62
2022/03/30 00:55:53;;;;;;;;;;;;;;;;;;4989976;28;19956;-62
2022/03/30 00:58:19;;;;;;;;;;;;;;;;;;4978734;28;19942;-62
2022/03/30 01:00:46;;;;;;;;;;;;;;;;;;4983517;28;19976;-61
2022/03/30 01:03:12;;;;;;;;;;;;;;;;;;4976076;28;19954;-62
2022/03/30 01:05:38;;;;;;;;;;;;;;;;;;4971334;28;20070;-61
2022/03/30 01:08:04;;;;;;;;;;;;;;;;;;4973312;28;19946;-62
2022/03/30 01:10:31;;;;;;;;;;;;;;;;;;4985838;28;19954;-62
2022/03/30 01:12:57;;;;;;;;;;;;;;;;;;4975936;28;21655;-62
2022/03/30 01:15:23;;;;;;;;;;;;;;;;;;4983135;28;19956;-63
2022/03/30 01:17:49;;;;;;;;;;;;;;;;;;4988075;28;20392;-64
2022/03/30 01:20:16;;;;;;;;;;;;;;;;;;4970734;28;19985;-65
2022/03/30 01:22:42;;;;;;;;;;;;;;;;;;4982729;28;20063;-64
2022/03/30 01:25:09;;;;;;;;;;;;;;;;;;4983185;28;20372;-64
2022/03/30 01:27:35;;;;;;;;;;;;;;;;;;4985658;28;20338;-63
2022/03/30 01:32:45;;;;;;;;;;;;;;;;;;4976855;28;19960;-63
2022/03/30 01:35:11;;;;;;;;;;;;;;;;;;4990106;28;20039;-63
2022/03/30 01:37:37;;;;;;;;;;;;;;;;;;4989694;28;20000;-61
2022/03/30 01:40:04;;;;;;;;;;;;;;;;;;4984808;28;19929;-61
2022/03/30 01:42:31;;;;;;;;;;;;;;;;;;4983860;28;19946;-61
2022/03/30 01:44:57;;;;;;;;;;;;;;;;;;4984191;28;20358;-62
2022/03/30 01:47:24;;;;;;;;;;;;;;;;;;4984109;28;20418;-61
2022/03/30 01:49:50;;;;;;;;;;;;;;;;;;4980281;28;19966;-61
2022/03/30 01:52:16;;;;;;;;;;;;;;;;;;4970430;28;20012;-63
2022/03/30 01:54:43;;;;;;;;;;;;;;;;;;4970706;28;19983;-62
2022/03/30 01:57:09;;;;;;;;;;;;;;;;;;4985888;28;19950;-62
2022/03/30 01:59:35;;;;;;;;;;;;;;;;;;4986395;28;19950;-61
2022/03/30 02:02:02;;;;;;;;;;;;;;;;;;4986784;28;19943;-62
2022/03/30 02:04:28;;;;;;;;;;;;;;;;;;4974193;28;20422;-61
2022/03/30 02:06:54;;;;;;;;;;;;;;;;;;4980569;28;19956;-62
2022/03/30 02:09:21;;;;;;;;;;;;;;;;;;4992489;28;19940;-62
2022/03/30 02:11:48;;;;;;;;;;;;;;;;;;4975216;28;20044;-61
2022/03/30 02:14:14;;;;;;;;;;;;;;;;;;4980338;28;19967;-64
2022/03/30 02:16:40;;;;;;;;;;;;;;;;;;4985659;28;20403;-62
2022/03/30 02:19:06;;;;;;;;;;;;;;;;;;4980470;28;20312;-62
2022/03/30 02:21:34;;;;;;;;;;;;;;;;;;4975465;28;20346;-62
2022/03/30 02:24:00;;;;;;;;;;;;;;;;;;4976759;28;19975;-61
2022/03/30 02:26:27;;;;;;;;;;;;;;;;;;4988669;28;20050;-61
2022/03/30 02:28:54;;;;;;;;;;;;;;;;;;4985012;28;20366;-61
2022/03/30 02:31:20;;;;;;;;;;;;;;;;;;4989887;28;20431;-61
2022/03/30 02:33:46;;;;;;;;;;;;;;;;;;4980956;28;19946;-62
2022/03/30 02:36:13;;;;;;;;;;;;;;;;;;4985359;28;19962;-62
2022/03/30 02:38:39;;;;;;;;;;;;;;;;;;4974507;28;20447;-62
2022/03/30 02:41:06;;;;;;;;;;;;;;;;;;4978761;28;20289;-62
2022/03/30 02:43:32;;;;;;;;;;;;;;;;;;4984730;28;19993;-60
2022/03/30 02:45:59;;;;;;;;;;;;;;;;;;4984948;28;19941;-61
2022/03/30 02:48:28;;;;;;;;;;;;;;;;;;4991944;28;19964;-60
2022/03/30 02:50:54;;;;;;;;;;;;;;;;;;4983631;28;20329;-62
2022/03/30 02:53:20;;;;;;;;;;;;;;;;;;4974005;28;20210;-60
2022/03/30 02:55:47;;;;;;;;;;;;;;;;;;4988222;28;19958;-61
2022/03/30 02:58:13;;;;;;;;;;;;;;;;;;4990649;28;19926;-61
2022/03/30 03:00:39;;;;;;;;;;;;;;;;;;4986500;28;19926;-62
2022/03/30 03:03:05;;;;;;;;;;;;;;;;;;4979898;28;19970;-62
2022/03/30 03:05:32;;;;;;;;;;;;;;;;;;4991215;28;19967;-61
2022/03/30 03:07:59;;;;;;;;;;;;;;;;;;4987769;28;19976;-60
2022/03/30 03:10:25;;;;;;;;;;;;;;;;;;4981068;28;19980;-60
2022/03/30 03:12:51;;;;;;;;;;;;;;;;;;4994118;28;20157;-61
2022/03/30 03:15:18;;;;;;;;;;;;;;;;;;4986225;28;19933;-60
2022/03/30 03:17:44;;;;;;;;;;;;;;;;;;4983129;28;19929;-60
2022/03/30 03:20:10;;;;;;;;;;;;;;;;;;4983383;28;20000;-60
2022/03/30 03:22:36;;;;;;;;;;;;;;;;;;4973026;28;19964;-66
2022/03/30 03:25:02;;;;;;;;;;;;;;;;;;4974291;28;20213;-63
2022/03/30 03:27:29;;;;;;;;;;;;;;;;;;4988879;28;19968;-68
2022/03/30 03:29:55;;;;;;;;;;;;;;;;;;4984881;28;19971;-68
2022/03/30 03:32:21;;;;;;;;;;;;;;;;;;4987156;28;19940;-66
2022/03/30 03:34:47;;;;;;;;;;;;;;;;;;4980744;28;19971;-63
2022/03/30 03:37:13;;;;;;;;;;;;;;;;;;4987220;28;19933;-62
2022/03/30 03:39:40;;;;;;;;;;;;;;;;;;4978244;28;19940;-62
2022/03/30 03:42:06;;;;;;;;;;;;;;;;;;4985321;28;19969;-63
2022/03/30 03:44:32;;;;;;;;;;;;;;;;;;4978507;28;20406;-64
2022/03/30 03:46:58;;;;;;;;;;;;;;;;;;4983630;28;19926;-62
2022/03/30 03:49:24;;;;;;;;;;;;;;;;;;4985510;28;19930;-63
2022/03/30 03:51:50;;;;;;;;;;;;;;;;;;4972653;28;20391;-63
2022/03/30 03:54:17;;;;;;;;;;;;;;;;;;4972956;28;19962;-61
2022/03/30 03:56:43;;;;;;;;;;;;;;;;;;4980363;28;19947;-63
2022/03/30 03:59:10;;;;;;;;;;;;;;;;;;4982427;28;20049;-64
2022/03/30 04:01:36;;;;;;;;;;;;;;;;;;4983505;28;19958;-66
2022/03/30 04:04:02;;;;;;;;;;;;;;;;;;4981049;28;19967;-64
2022/03/30 04:06:29;;;;;;;;;;;;;;;;;;4995112;23;20398;-61
2022/03/30 04:08:55;;;;;;;;;;;;;;;;;;4998974;28;20029;-62
2022/03/30 04:11:21;;;;;;;;;;;;;;;;;;5009794;28;19988;-61
2022/03/30 04:13:47;;;;;;;;;;;;;;;;;;5009751;28;20425;-62
2022/03/30 04:16:16;;;;;;;;;;;;;;;;;;4997964;28;19970;-61
2022/03/30 04:18:42;;;;;;;;;;;;;;;;;;5004700;28;20371;-63
2022/03/30 04:21:08;;;;;;;;;;;;;;;;;;5010531;28;20303;-62
2022/03/30 04:23:34;;;;;;;;;;;;;;;;;;5010947;28;20299;-63
2022/03/30 04:26:00;;;;;;;;;;;;;;;;;;5016973;28;19968;-64
2022/03/30 04:28:26;;;;;;;;;;;;;;;;;;5011785;28;19962;-64
2022/03/30 04:30:53;;;;;;;;;;;;;;;;;;5026825;28;19963;-65
2022/03/30 04:33:19;;;;;;;;;;;;;;;;;;5028236;28;19948;-64
2022/03/30 04:35:45;;;;;;;;;;;;;;;;;;5023175;28;19989;-63
2022/03/30 04:38:11;;;;;;;;;;;;;;;;;;5025574;28;20014;-64
2022/03/30 04:40:37;;;;;;;;;;;;;;;;;;5026077;28;19966;-64
2022/03/30 04:43:03;;;;;;;;;;;;;;;;;;5019558;28;20082;-64
2022/03/30 04:45:30;;;;;;;;;;;;;;;;;;5025947;28;19975;-63
2022/03/30 04:47:56;;;;;;;;;;;;;;;;;;5018618;28;19925;-67
2022/03/30 04:50:22;;;;;;;;;;;;;;;;;;5013205;28;20051;-70
2022/03/30 04:52:48;;;;;;;;;;;;;;;;;;5018136;28;19946;-71
2022/03/30 04:55:14;;;;;;;;;;;;;;;;;;5012529;28;19957;-70
2022/03/30 04:57:41;;;;;;;;;;;;;;;;;;5007721;28;19941;-71
2022/03/30 05:00:08;;;;;;;;;;;;;;;;;;5005777;28;19947;-70
2022/03/30 05:02:34;;;;;;;;;;;;;;;;;;5010639;28;19964;-71
2022/03/30 05:05:01;;;;;;;;;;;;;;;;;;4305732;28;10000719;-71
2022/03/30 05:07:27;;;;;;;;;;;;;;;;;;5004580;28;19948;-71
2022/03/30 05:09:53;;;;;;;;;;;;;;;;;;5000553;28;19969;-72
2022/03/30 05:12:19;;;;;;;;;;;;;;;;;;4987516;28;19972;-71
2022/03/30 05:14:45;;;;;;;;;;;;;;;;;;4988101;28;19964;-71
2022/03/30 05:17:11;;;;;;;;;;;;;;;;;;4995220;28;19953;-72
2022/03/30 05:19:38;;;;;;;;;;;;;;;;;;5003741;28;20574;-72
2022/03/30 05:22:04;;;;;;;;;;;;;;;;;;4987626;28;20411;-72
2022/03/30 05:24:30;;;;;;;;;;;;;;;;;;4991915;28;20011;-72
2022/03/30 05:26:57;;;;;;;;;;;;;;;;;;5001455;28;19933;-70
2022/03/30 05:29:23;;;;;;;;;;;;;;;;;;4997466;28;19966;-71
2022/03/30 05:31:49;;;;;;;;;;;;;;;;;;4996200;28;19944;-71
2022/03/30 05:34:15;;;;;;;;;;;;;;;;;;5008116;28;19962;-72
2022/03/30 05:36:41;;;;;;;;;;;;;;;;;;5003052;28;19949;-71
2022/03/30 05:39:07;;;;;;;;;;;;;;;;;;4998967;28;19955;-71
2022/03/30 05:41:34;;;;;;;;;;;;;;;;;;5002572;28;20303;-72
2022/03/30 05:44:00;;;;;;;;;;;;;;;;;;5004126;28;19962;-71
2022/03/30 05:46:26;;;;;;;;;;;;;;;;;;5005730;28;19981;-71
2022/03/30 05:48:52;;;;;;;;;;;;;;;;;;5007038;28;19976;-72
2022/03/30 05:51:18;;;;;;;;;;;;;;;;;;5007443;28;19964;-70
2022/03/30 05:53:45;;;;;;;;;;;;;;;;;;5005248;28;19958;-70
2022/03/30 05:56:11;;;;;;;;;;;;;;;;;;4996621;28;20034;-70
2022/03/30 05:58:37;;;;;;;;;;;;;;;;;;5005347;28;19954;-71
2022/03/30 06:01:03;;;;;;;;;;;;;;;;;;5007567;28;19977;-70
2022/03/30 06:03:29;;;;;;;;;;;;;;;;;;5002860;28;20046;-71
2022/03/30 06:05:55;;;;;;;;;;;;;;;;;;4996847;28;20399;-70
2022/03/30 06:08:21;;;;;;;;;;;;;;;;;;5005788;28;20366;-70
2022/03/30 06:10:49;;;;;;;;;;;;;;;;;;4999120;28;19956;-70
2022/03/30 06:13:17;;;;;;;;;;;;;;;;;;5004128;28;19970;-70
2022/03/30 06:15:43;;;;;;;;;;;;;;;;;;5000705;28;19971;-70
2022/03/30 06:18:11;;;;;;;;;;;;;;;;;;5000871;28;19950;-71
2022/03/30 06:20:37;;;;;;;;;;;;;;;;;;4994265;28;19992;-71
2022/03/30 06:23:03;;;;;;;;;;;;;;;;;;4991119;28;19977;-71
2022/03/30 06:25:30;;;;;;;;;;;;;;;;;;4997511;28;19972;-71
2022/03/30 06:27:57;;;;;;;;;;;;;;;;;;4998604;28;19978;-71
2022/03/30 06:30:24;;;;;;;;;;;;;;;;;;4987370;28;19951;-71
2022/03/30 06:32:51;;;;;;;;;;;;;;;;;;5002963;28;20334;-71
2022/03/30 06:35:17;;;;;;;;;;;;;;;;;;5006929;28;19969;-71
2022/03/30 06:37:43;;;;;;;;;;;;;;;;;;5001696;28;20470;-71
2022/03/30 06:40:10;;;;;;;;;;;;;;;;;;5000079;28;19952;-71
2022/03/30 06:42:37;;;;;;;;;;;;;;;;;;5007269;28;19986;-71
2022/03/30 06:45:03;;;;;;;;;;;;;;;;;;5006990;28;20340;-71
2022/03/30 06:47:29;;;;;;;;;;;;;;;;;;5000680;28;19963;-70
2022/03/30 06:49:56;;;;;;;;;;;;;;;;;;5010494;28;19956;-70
2022/03/30 06:52:22;;;;;;;;;;;;;;;;;;4992439;28;20364;-70
2022/03/30 06:54:48;;;;;;;;;;;;;;;;;;5008332;28;19961;-71
2022/03/30 06:57:14;;;;;;;;;;;;;;;;;;5007681;28;19955;-71
2022/03/30 06:59:43;;;;;;;;;;;;;;;;;;5010759;28;20322;-72
2022/03/30 07:02:09;;;;;;;;;;;;;;;;;;5010212;28;20025;-69
2022/03/30 07:04:36;;;;;;;;;;;;;;;;;;5007830;28;20467;-70
2022/03/30 07:12:31;;;;;;;;;;;;;;;;;;5010304;28;19960;-71
2022/03/30 07:14:57;;;;;;;;;;;;;;;;;;5003086;28;19968;-71
2022/03/30 07:17:23;;;;;;;;;;;;;;;;;;5008722;28;19933;-71
2022/03/30 07:19:49;;;;;;;;;;;;;;;;;;5004154;28;19958;-71
2022/03/30 07:22:15;;;;;;;;;;;;;;;;;;5008098;28;19968;-74
2022/03/30 07:24:41;;;;;;;;;;;;;;;;;;5008235;28;19985;-71
2022/03/30 07:27:08;;;;;;;;;;;;;;;;;;5007303;28;20271;-71
2022/03/30 07:29:34;;;;;;;;;;;;;;;;;;5004993;28;20009;-71
2022/03/30 07:32:00;;;;;;;;;;;;;;;;;;5008039;28;19946;-70
2022/03/30 07:34:26;;;;;;;;;;;;;;;;;;5008970;28;19958;-70
2022/03/30 07:36:52;;;;;;;;;;;;;;;;;;5009315;28;19960;-71
2022/03/30 07:39:18;;;;;;;;;;;;;;;;;;5009535;28;20378;-71
2022/03/30 07:41:45;;;;;;;;;;;;;;;;;;5000923;28;20366;-71
2022/03/30 07:44:11;;;;;;;;;;;;;;;;;;5001707;28;20123;-70
2022/03/30 07:46:37;;;;;;;;;;;;;;;;;;5007153;28;19986;-70
2022/03/30 07:49:04;;;;;;;;;;;;;;;;;;5005222;28;19951;-72
2022/03/30 07:51:30;;;;;;;;;;;;;;;;;;5009137;28;19949;-71
2022/03/30 07:53:56;;;;;;;;;;;;;;;;;;4990777;28;19969;-71
2022/03/30 07:56:23;;;;;;;;;;;;;;;;;;5000689;28;19943;-72
2022/03/30 07:58:50;;;;;;;;;;;;;;;;;;4991582;28;19975;-72
2022/03/30 08:01:17;;;;;;;;;;;;;;;;;;5005905;28;19944;-71
2022/03/30 08:03:44;;;;;;;;;;;;;;;;;;5002629;28;19996;-72
2022/03/30 08:06:10;;;;;;;;;;;;;;;;;;5011185;28;20073;-71
2022/03/30 08:08:36;;;;;;;;;;;;;;;;;;5011623;28;19974;-71
2022/03/30 08:11:02;;;;;;;;;;;;;;;;;;5003191;28;19945;-71
2022/03/30 08:13:28;;;;;;;;;;;;;;;;;;5008035;28;19953;-70
2022/03/30 08:15:54;;;;;;;;;;;;;;;;;;4997689;28;19978;-71
2022/03/30 08:18:21;;;;;;;;;;;;;;;;;;4997640;28;19984;-71
2022/03/30 08:23:31;;;;;;;;;;;;;;;;;;5008663;28;19979;-71
2022/03/30 08:25:57;;;;;;;;;;;;;;;;;;5008247;28;19974;-71
2022/03/30 08:28:23;;;;;;;;;;;;;;;;;;5006226;28;19957;-71
2022/03/30 08:30:49;;;;;;;;;;;;;;;;;;5007564;28;20443;-71
2022/03/30 08:33:18;;;;;;;;;;;;;;;;;;5003415;28;20043;-71
2022/03/30 08:35:44;;;;;;;;;;;;;;;;;;4998650;28;19976;-71
2022/03/30 08:38:11;;;;;;;;;;;;;;;;;;5006465;28;19949;-71
2022/03/30 08:40:37;;;;;;;;;;;;;;;;;;5001873;28;20409;-72
2022/03/30 08:43:04;;;;;;;;;;;;;;;;;;5007443;28;19971;-71
2022/03/30 08:45:30;;;;;;;;;;;;;;;;;;4993820;28;20567;-71
2022/03/30 08:47:56;;;;;;;;;;;;;;;;;;4992784;28;19970;-72
2022/03/30 08:50:22;;;;;;;;;;;;;;;;;;4999818;28;19954;-71
2022/03/30 08:52:49;;;;;;;;;;;;;;;;;;5008007;28;19953;-71
2022/03/30 08:55:15;;;;;;;;;;;;;;;;;;5007879;28;20402;-71
2022/03/30 08:57:42;;;;;;;;;;;;;;;;;;4999782;28;19959;-72
2022/03/30 09:00:09;;;;;;;;;;;;;;;;;;4997670;28;19951;-71
2022/03/30 09:02:35;;;;;;;;;;;;;;;;;;5007802;28;19972;-72
2022/03/30 09:05:01;;;;;;;;;;;;;;;;;;4996843;28;20044;-71
2022/03/30 09:07:27;;;;;;;;;;;;;;;;;;5008032;28;19965;-71
2022/03/30 09:09:54;;;;;;;;;;;;;;;;;;5006123;28;19954;-72
2022/03/30 09:12:20;;;;;;;;;;;;;;;;;;4996306;28;19999;-72
2022/03/30 09:14:46;;;;;;;;;;;;;;;;;;4988341;28;19973;-72
2022/03/30 09:17:12;;;;;;;;;;;;;;;;;;4997661;28;19964;-72
2022/03/30 09:19:40;;;;;;;;;;;;;;;;;;5004067;28;20335;-73
2022/03/30 09:22:06;;;;;;;;;;;;;;;;;;5006558;28;20458;-72
2022/03/30 09:24:32;;;;;;;;;;;;;;;;;;5006516;28;20098;-72
2022/03/30 09:26:59;;;;;;;;;;;;;;;;;;5003031;28;19955;-72
2022/03/30 09:29:25;;;;;;;;;;;;;;;;;;5000157;28;20395;-72
2022/03/30 09:31:51;;;;;;;;;;;;;;;;;;5004165;28;19965;-71
2022/03/30 09:34:17;;;;;;;;;;;;;;;;;;5005192;28;19957;-71
2022/03/30 09:36:43;;;;;;;;;;;;;;;;;;5003519;28;19954;-72
2022/03/30 09:39:11;;;;;;;;;;;;;;;;;;5006905;28;20405;-71
2022/03/30 09:41:37;;;;;;;;;;;;;;;;;;5001811;28;19948;-72
2022/03/30 09:44:03;;;;;;;;;;;;;;;;;;4995890;28;19963;-72
2022/03/30 09:46:29;;;;;;;;;;;;;;;;;;5007534;28;20012;-72
2022/03/30 09:48:56;;;;;;;;;;;;;;;;;;5002408;28;19956;-72
2022/03/30 09:51:22;;;;;;;;;;;;;;;;;;5004143;28;19947;-72
2022/03/30 09:53:48;;;;;;;;;;;;;;;;;;5000772;28;20208;-72
2022/03/30 09:56:15;;;;;;;;;;;;;;;;;;4995200;28;20389;-72
2022/03/30 09:58:41;;;;;;;;;;;;;;;;;;5003823;28;19948;-71
2022/03/30 10:01:08;;;;;;;;;;;;;;;;;;5001919;28;20411;-71
2022/03/30 10:03:34;;;;;;;;;;;;;;;;;;4988585;28;20162;-72
2022/03/30 10:06:00;;;;;;;;;;;;;;;;;;5002708;28;19949;-72
2022/03/30 10:08:26;;;;;;;;;;;;;;;;;;5002779;28;19967;-72
2022/03/30 10:10:52;;;;;;;;;;;;;;;;;;4999258;28;20425;-72
2022/03/30 10:13:18;;;;;;;;;;;;;;;;;;5001057;28;19948;-72
2022/03/30 10:15:45;;;;;;;;;;;;;;;;;;4999989;28;19964;-72
2022/03/30 10:18:11;;;;;;;;;;;;;;;;;;5005709;28;19973;-72
2022/03/30 10:20:37;;;;;;;;;;;;;;;;;;5002462;28;19951;-72
2022/03/30 10:23:04;;;;;;;;;;;;;;;;;;5007307;28;20041;-72
2022/03/30 10:25:30;;;;;;;;;;;;;;;;;;4993881;28;20126;-74
2022/03/30 10:27:56;;;;;;;;;;;;;;;;;;4995613;28;20190;-73
2022/03/30 10:30:23;;;;;;;;;;;;;;;;;;5002950;28;19956;-73
2022/03/30 10:32:49;;;;;;;;;;;;;;;;;;5012360;28;20412;-73
2022/03/30 10:35:15;;;;;;;;;;;;;;;;;;5008114;28;19968;-72
2022/03/30 10:37:42;;;;;;;;;;;;;;;;;;5012276;28;19943;-72
2022/03/30 10:40:08;;;;;;;;;;;;;;;;;;5011481;28;20044;-73
2022/03/30 10:42:35;;;;;;;;;;;;;;;;;;5002722;28;19970;-73
2022/03/30 10:45:03;;;;;;;;;;;;;;;;;;5010071;28;19941;-73
2022/03/30 10:47:30;;;;;;;;;;;;;;;;;;5006923;28;19955;-73
2022/03/30 10:49:56;;;;;;;;;;;;;;;;;;5003146;28;20433;-73
2022/03/30 10:52:22;;;;;;;;;;;;;;;;;;5000129;28;19947;-73
2022/03/30 10:54:50;;;;;;;;;;;;;;;;;;5008700;28;19957;-73
2022/03/30 10:57:16;;;;;;;;;;;;;;;;;;5011930;28;20018;-72
2022/03/30 10:59:43;;;;;;;;;;;;;;;;;;5011429;28;19982;-72
2022/03/30 11:02:11;;;;;;;;;;;;;;;;;;5010832;28;20038;-74
2022/03/30 11:04:37;;;;;;;;;;;;;;;;;;5009199;28;19930;-74
2022/03/30 11:07:03;;;;;;;;;;;;;;;;;;5010158;28;19954;-72
2022/03/30 11:09:30;;;;;;;;;;;;;;;;;;5011318;28;19929;-72
2022/03/30 11:11:56;;;;;;;;;;;;;;;;;;4990515;28;19937;-72
2022/03/30 11:14:22;;;;;;;;;;;;;;;;;;5002774;28;20413;-72
2022/03/30 11:16:49;;;;;;;;;;;;;;;;;;5006865;28;19933;-72
2022/03/30 11:19:15;;;;;;;;;;;;;;;;;;5010506;28;19930;-72
2022/03/30 11:21:41;;;;;;;;;;;;;;;;;;5010299;28;20004;-72
2022/03/30 11:24:07;;;;;;;;;;;;;;;;;;5010000;28;19948;-72
2022/03/30 11:26:33;;;;;;;;;;;;;;;;;;5008144;28;19929;-72
2022/03/30 11:28:59;;;;;;;;;;;;;;;;;;5000466;28;20021;-73
2022/03/30 11:31:25;;;;;;;;;;;;;;;;;;5004523;28;19931;-73
2022/03/30 11:33:52;;;;;;;;;;;;;;;;;;5006817;28;19929;-73
2022/03/30 11:36:18;;;;;;;;;;;;;;;;;;5009876;28;19929;-72
2022/03/30 11:38:44;;;;;;;;;;;;;;;;;;5010703;28;19929;-73
2022/03/30 11:41:10;;;;;;;;;;;;;;;;;;5004551;28;19941;-71
2022/03/30 11:45:12;;;;;;;;;;;;;;;;;;5002544;28;19937;-71
2022/03/30 11:46:23;;;;;;;;;;;;;;;;;;4989893;28;20081;-73
2022/03/30 11:48:49;;;;;;;;;;;;;;;;;;5006243;28;20137;-72
2022/03/30 11:51:16;;;;;;;;;;;;;;;;;;5010421;28;19931;-72
2022/03/30 11:53:42;;;;;;;;;;;;;;;;;;5009258;28;19963;-72
2022/03/30 11:56:09;;;;;;;;;;;;;;;;;;5009404;28;19957;-73
2022/03/30 11:58:35;;;;;;;;;;;;;;;;;;5023227;28;19933;-71
2022/03/30 12:01:02;;;;;;;;;;;;;;;;;;5011805;28;20353;-72
2022/03/30 12:03:30;;;;;;;;;;;;;;;;;;5009718;28;19933;-72
2022/03/30 12:05:57;;;;;;;;;;;;;;;;;;5001857;28;19980;-72
2022/03/30 12:08:23;;;;;;;;;;;;;;;;;;5009634;28;19950;-70
2022/03/30 12:10:53;;;;;;;;;;;;;;;;;;5008844;28;19964;-70
2022/03/30 12:13:19;;;;;;;;;;;;;;;;;;5009213;28;20060;-72
2022/03/30 12:15:45;;;;;;;;;;;;;;;;;;5002402;28;20041;-72
2022/03/30 12:18:12;;;;;;;;;;;;;;;;;;5002789;28;19925;-72
2022/03/30 12:20:38;;;;;;;;;;;;;;;;;;5009445;28;19925;-71
2022/03/30 12:23:04;;;;;;;;;;;;;;;;;;5012512;28;20411;-72
2022/03/30 12:25:30;;;;;;;;;;;;;;;;;;5014263;28;20370;-71
2022/03/30 12:27:56;;;;;;;;;;;;;;;;;;5016617;28;20209;-71
2022/03/30 12:30:22;;;;;;;;;;;;;;;;;;5002090;28;19926;-72
2022/03/30 12:32:48;;;;;;;;;;;;;;;;;;5007317;28;19980;-72
2022/03/30 12:35:15;;;;;;;;;;;;;;;;;;5007706;28;20104;-70
2022/03/30 12:37:43;;;;;;;;;;;;;;;;;;5023056;28;19929;-69
2022/03/30 12:40:10;;;;;;;;;;;;;;;;;;5018497;28;19990;-69
2022/03/30 12:42:36;;;;;;;;;;;;;;;;;;5007448;28;19930;-70
2022/03/30 12:45:05;;;;;;;;;;;;;;;;;;5012224;28;20297;-69
2022/03/30 12:47:32;;;;;;;;;;;;;;;;;;5020569;28;19929;-69
2022/03/30 12:49:58;;;;;;;;;;;;;;;;;;5019691;28;19940;-69
2022/03/30 12:52:24;;;;;;;;;;;;;;;;;;5013017;28;20001;-70
2022/03/30 12:54:52;;;;;;;;;;;;;;;;;;5001516;28;19929;-70
2022/03/30 12:57:18;;;;;;;;;;;;;;;;;;5008600;28;19930;-69
2022/03/30 12:59:44;;;;;;;;;;;;;;;;;;5010274;28;20028;-69
2022/03/30 13:02:11;;;;;;;;;;;;;;;;;;4992307;28;19930;-73
2022/03/30 13:04:37;;;;;;;;;;;;;;;;;;4989730;28;20294;-72
2022/03/30 13:07:03;;;;;;;;;;;;;;;;;;5007512;28;19929;-72
2022/03/30 13:09:29;;;;;;;;;;;;;;;;;;5008822;28;19940;-72
2022/03/30 13:11:57;;;;;;;;;;;;;;;;;;5018487;23;20305;-71
2022/03/30 13:14:23;;;;;;;;;;;;;;;;;;5009480;28;19926;-71
2022/03/30 13:16:49;;;;;;;;;;;;;;;;;;5008740;28;20390;-71
2022/03/30 13:19:17;;;;;;;;;;;;;;;;;;5010344;28;19925;-71
2022/03/30 13:21:44;;;;;;;;;;;;;;;;;;5010537;28;19961;-70
2022/03/30 13:24:10;;;;;;;;;;;;;;;;;;5010515;28;19925;-71
2022/03/30 13:26:36;;;;;;;;;;;;;;;;;;5006625;28;19930;-70
2022/03/30 13:29:02;;;;;;;;;;;;;;;;;;5009211;28;19926;-71
2022/03/30 13:31:28;;;;;;;;;;;;;;;;;;5011004;28;19940;-70
2022/03/30 13:33:55;;;;;;;;;;;;;;;;;;5011773;28;20317;-71
2022/03/30 13:36:21;;;;;;;;;;;;;;;;;;5011402;28;19930;-71
2022/03/30 13:38:47;;;;;;;;;;;;;;;;;;5011633;28;19926;-71
2022/03/30 13:41:14;;;;;;;;;;;;;;;;;;5008728;28;19941;-69
2022/03/30 13:43:41;;;;;;;;;;;;;;;;;;5011861;28;20440;-72
2022/03/30 13:46:07;;;;;;;;;;;;;;;;;;5010589;28;19926;-72
2022/03/30 13:48:33;;;;;;;;;;;;;;;;;;5010922;28;19930;-69
2022/03/30 13:51:00;;;;;;;;;;;;;;;;;;5011294;28;19936;-70
2022/03/30 13:53:26;;;;;;;;;;;;;;;;;;5014492;28;19964;-70
2022/03/30 13:55:52;;;;;;;;;;;;;;;;;;5014162;28;19927;-70
2022/03/30 13:58:18;;;;;;;;;;;;;;;;;;5014587;28;19929;-70
2022/03/30 14:00:44;;;;;;;;;;;;;;;;;;5014393;28;20398;-70
2022/03/30 14:03:10;;;;;;;;;;;;;;;;;;5014203;28;20267;-69
2022/03/30 14:05:36;;;;;;;;;;;;;;;;;;5015033;28;20463;-69
2022/03/30 14:08:03;;;;;;;;;;;;;;;;;;5014034;28;20390;-69
2022/03/30 14:10:30;;;;;;;;;;;;;;;;;;5013880;28;19978;-69
2022/03/30 14:12:56;;;;;;;;;;;;;;;;;;5013264;28;20462;-70
2022/03/30 14:15:22;;;;;;;;;;;;;;;;;;5006133;28;19929;-70
2022/03/30 14:17:48;;;;;;;;;;;;;;;;;;5012374;28;20361;-70
2022/03/30 14:20:14;;;;;;;;;;;;;;;;;;5012953;28;20351;-70
2022/03/30 14:22:43;;;;;;;;;;;;;;;;;;5012535;28;20023;-68
2022/03/30 14:25:09;;;;;;;;;;;;;;;;;;5012098;28;20030;-69
2022/03/30 14:27:35;;;;;;;;;;;;;;;;;;5012074;28;20350;-69
2022/03/30 14:30:02;;;;;;;;;;;;;;;;;;5012401;28;19936;-70
2022/03/30 14:32:28;;;;;;;;;;;;;;;;;;5011785;28;19929;-69
2022/03/30 14:34:54;;;;;;;;;;;;;;;;;;5012780;28;20413;-69
2022/03/30 14:37:20;;;;;;;;;;;;;;;;;;5011996;28;19932;-69
2022/03/30 14:39:46;;;;;;;;;;;;;;;;;;5012384;28;19932;-70
2022/03/30 14:42:13;;;;;;;;;;;;;;;;;;5010209;28;20378;-70
2022/03/30 14:44:39;;;;;;;;;;;;;;;;;;5012353;28;19945;-70
2022/03/30 14:47:06;;;;;;;;;;;;;;;;;;5012213;28;19926;-70
2022/03/30 14:49:33;;;;;;;;;;;;;;;;;;5005450;28;20359;-69
2022/03/30 14:51:59;;;;;;;;;;;;;;;;;;5000908;28;20275;-70
2022/03/30 14:54:25;;;;;;;;;;;;;;;;;;5013072;28;20349;-70
2022/03/30 14:56:51;;;;;;;;;;;;;;;;;;5011903;28;20386;-70
2022/03/30 14:59:18;;;;;;;;;;;;;;;;;;5012293;28;20212;-70
2022/03/30 15:01:44;;;;;;;;;;;;;;;;;;5011813;28;20274;-70
2022/03/30 15:04:10;;;;;;;;;;;;;;;;;;5012677;28;19957;-70
2022/03/30 15:06:36;;;;;;;;;;;;;;;;;;5012225;28;19925;-69
2022/03/30 15:09:02;;;;;;;;;;;;;;;;;;5012337;28;19926;-69
2022/03/30 15:11:28;;;;;;;;;;;;;;;;;;4949980;28;1764085;-70
2022/03/30 15:13:55;;;;;;;;;;;;;;;;;;5013209;28;20394;-69
2022/03/30 15:16:21;;;;;;;;;;;;;;;;;;5011056;28;19933;-69
2022/03/30 15:18:47;;;;;;;;;;;;;;;;;;5012912;28;19929;-70
2022/03/30 15:21:13;;;;;;;;;;;;;;;;;;5012635;28;19925;-70
2022/03/30 15:23:39;;;;;;;;;;;;;;;;;;5011911;28;20009;-69
2022/03/30 15:26:06;;;;;;;;;;;;;;;;;;5012745;28;19926;-70
2022/03/30 15:28:32;;;;;;;;;;;;;;;;;;5012187;28;19925;-70
2022/03/30 15:30:58;;;;;;;;;;;;;;;;;;5012255;28;19933;-69
2022/03/30 15:33:24;;;;;;;;;;;;;;;;;;5012351;28;19925;-70
2022/03/30 15:35:53;;;;;;;;;;;;;;;;;;5014804;28;20424;-71
2022/03/30 15:38:19;;;;;;;;;;;;;;;;;;5015125;28;20381;-70
2022/03/30 15:40:45;;;;;;;;;;;;;;;;;;5015040;28;19926;-69
2022/03/30 15:43:12;;;;;;;;;;;;;;;;;;5015670;28;19964;-69
2022/03/30 15:45:40;;;;;;;;;;;;;;;;;;5015104;28;19976;-69
2022/03/30 15:48:07;;;;;;;;;;;;;;;;;;5015519;28;19953;-70
2022/03/30 15:50:34;;;;;;;;;;;;;;;;;;5013529;28;19963;-70
2022/03/30 15:53:00;;;;;;;;;;;;;;;;;;5012261;28;19945;-70
2022/03/30 15:55:26;;;;;;;;;;;;;;;;;;5011902;28;19933;-70
2022/03/30 15:57:52;;;;;;;;;;;;;;;;;;5012116;28;20320;-68
2022/03/30 16:00:18;;;;;;;;;;;;;;;;;;5011684;28;20483;-69
2022/03/30 16:02:44;;;;;;;;;;;;;;;;;;5012456;28;19993;-69
2022/03/30 16:05:11;;;;;;;;;;;;;;;;;;5011790;28;19965;-69
2022/03/30 16:08:53;;;;;;;;;;;;;;;;;;5011777;28;19973;-69
2022/03/30 16:10:23;;;;;;;;;;;;;;;;;;5010932;28;19960;-68
2022/03/30 16:12:48;;;;;;;;;;;;;;;;;;5011411;28;19957;-70
2022/03/30 16:15:14;;;;;;;;;;;;;;;;;;5007220;28;19950;-68
2022/03/30 16:17:40;;;;;;;;;;;;;;;;;;5011623;28;20313;-70
2022/03/30 16:20:18;;;;;;;;;;;;;;;;;;5011737;28;19950;-69
2022/03/30 16:22:45;;;;;;;;;;;;;;;;;;5011922;28;19996;-70
2022/03/30 16:25:11;;;;;;;;;;;;;;;;;;5011400;28;19969;-70
2022/03/30 16:27:37;;;;;;;;;;;;;;;;;;5011082;28;19951;-70
2022/03/30 16:30:03;;;;;;;;;;;;;;;;;;5011736;28;19955;-69
2022/03/30 16:32:29;;;;;;;;;;;;;;;;;;5011035;28;19949;-70
2022/03/30 16:34:56;;;;;;;;;;;;;;;;;;5011646;28;19962;-70
2022/03/30 16:37:22;;;;;;;;;;;;;;;;;;5011613;28;19941;-69
2022/03/30 16:39:50;;;;;;;;;;;;;;;;;;5012077;28;20403;-69
2022/03/30 16:42:17;;;;;;;;;;;;;;;;;;5007928;28;19948;-70
2022/03/30 16:44:43;;;;;;;;;;;;;;;;;;4997992;28;20046;-69
2022/03/30 16:47:10;;;;;;;;;;;;;;;;;;4312147;28;10000707;-69
2022/03/30 16:49:37;;;;;;;;;;;;;;;;;;4999762;28;20398;-69
2022/03/30 16:52:03;;;;;;;;;;;;;;;;;;5006444;28;19953;-70